FGN06 LFKD-LFKD
Flight info
| Callsign | FGN06 |
|---|---|
| Flight time | 0h 36m |
| Altitude | 6000 |
| Route | DCT |
| Aircraft | H145/L-SDFGRY/C |
Departure
| Time | 2026-05-05 08:12 |
|---|---|
| Airport | Sollières Sardières Airfield (LFKD) |
Arrival
| Time | 2026-05-05 08:48 |
|---|---|
| Airport | Sollières Sardières Airfield (LFKD) |
| Time | Latitude | Longitude | Altitude | Speed | Heading |
|---|---|---|---|---|---|
| 2026-05-05 07:50 | 45.20361 | 6.68200 | 3732 ft | 0 kts | 78° |
| 2026-05-05 07:53 | 45.20374 | 6.68232 | 3781 ft | 20 kts | 76° |
| 2026-05-05 07:53 | 45.20557 | 6.68532 | 4004 ft | 56 kts | 77° |
| 2026-05-05 07:53 | 45.20617 | 6.69150 | 4208 ft | 62 kts | 106° |
| 2026-05-05 07:53 | 45.20726 | 6.69620 | 4485 ft | 69 kts | 14° |
| 2026-05-05 07:54 | 45.20943 | 6.69002 | 4591 ft | 92 kts | 238° |
| 2026-05-05 07:54 | 45.20605 | 6.68201 | 4452 ft | 97 kts | 237° |
| 2026-05-05 07:54 | 45.20500 | 6.67224 | 4224 ft | 102 kts | 251° |
| 2026-05-05 07:54 | 45.20112 | 6.67370 | 3900 ft | 98 kts | 96° |
| 2026-05-05 07:55 | 45.20373 | 6.67943 | 3826 ft | 36 kts | 94° |
| 2026-05-05 07:55 | 45.20363 | 6.68174 | 3751 ft | 14 kts | 107° |
| 2026-05-05 07:55 | 45.20361 | 6.68214 | 3728 ft | 0 kts | 58° |
| 2026-05-05 08:10 | 45.20363 | 6.68215 | 3737 ft | 3 kts | 71° |
| 2026-05-05 08:10 | 45.20516 | 6.68048 | 3858 ft | 53 kts | 321° |
| 2026-05-05 08:11 | 45.20601 | 6.67506 | 4159 ft | 71 kts | 271° |
| 2026-05-05 08:11 | 45.20885 | 6.66789 | 4499 ft | 84 kts | 308° |
| 2026-05-05 08:11 | 45.21137 | 6.66264 | 5108 ft | 47 kts | 302° |
| 2026-05-05 08:11 | 45.21296 | 6.65964 | 5611 ft | 41 kts | 328° |
| 2026-05-05 08:12 | 45.21583 | 6.65761 | 6085 ft | 51 kts | 342° |
| 2026-05-05 08:12 | 45.21948 | 6.65550 | 6544 ft | 61 kts | 335° |
| 2026-05-05 08:12 | 45.22337 | 6.65196 | 6881 ft | 73 kts | 323° |
| 2026-05-05 08:12 | 45.22851 | 6.64845 | 7139 ft | 92 kts | 336° |
| 2026-05-05 08:13 | 45.23503 | 6.64496 | 7286 ft | 107 kts | 346° |
| 2026-05-05 08:13 | 45.24205 | 6.64407 | 7574 ft | 91 kts | 2° |
| 2026-05-05 08:13 | 45.24775 | 6.64392 | 7976 ft | 73 kts | 9° |
| 2026-05-05 08:13 | 45.25232 | 6.64408 | 8442 ft | 58 kts | 5° |
| 2026-05-05 08:14 | 45.25604 | 6.64432 | 8974 ft | 49 kts | 4° |
| 2026-05-05 08:14 | 45.25896 | 6.64316 | 9388 ft | 40 kts | 314° |
| 2026-05-05 08:14 | 45.26106 | 6.64136 | 9695 ft | 31 kts | 327° |
| 2026-05-05 08:14 | 45.26269 | 6.64023 | 9913 ft | 22 kts | 337° |
| 2026-05-05 08:15 | 45.26406 | 6.63914 | 10067 ft | 24 kts | 348° |
| 2026-05-05 08:15 | 45.26648 | 6.64249 | 10212 ft | 78 kts | 34° |
| 2026-05-05 08:15 | 45.27262 | 6.64764 | 10251 ft | 128 kts | 16° |
| 2026-05-05 08:15 | 45.28220 | 6.65018 | 10140 ft | 151 kts | 343° |
| 2026-05-05 08:16 | 45.29273 | 6.64511 | 9797 ft | 169 kts | 331° |
| 2026-05-05 08:16 | 45.30352 | 6.63899 | 9751 ft | 165 kts | 332° |
| 2026-05-05 08:16 | 45.31419 | 6.63250 | 9421 ft | 173 kts | 330° |
| 2026-05-05 08:16 | 45.32530 | 6.62517 | 9033 ft | 178 kts | 329° |
| 2026-05-05 08:17 | 45.33650 | 6.61702 | 8666 ft | 181 kts | 326° |
| 2026-05-05 08:17 | 45.34572 | 6.60532 | 8156 ft | 176 kts | 306° |
| 2026-05-05 08:17 | 45.35308 | 6.59196 | 7377 ft | 164 kts | 308° |
| 2026-05-05 08:17 | 45.35968 | 6.58064 | 7159 ft | 135 kts | 309° |
| 2026-05-05 08:18 | 45.36603 | 6.57333 | 6984 ft | 102 kts | 14° |
| 2026-05-05 08:18 | 45.36925 | 6.57983 | 6499 ft | 92 kts | 66° |
| 2026-05-05 08:18 | 45.37475 | 6.58313 | 5927 ft | 85 kts | 305° |
| 2026-05-05 08:18 | 45.37310 | 6.58054 | 5756 ft | 48 kts | 177° |
| 2026-05-05 08:19 | 45.36980 | 6.58121 | 5847 ft | 47 kts | 191° |
| 2026-05-05 08:19 | 45.36813 | 6.58072 | 5873 ft | 42 kts | 197° |
| 2026-05-05 08:19 | 45.36699 | 6.58527 | 6149 ft | 44 kts | 131° |
| 2026-05-05 08:19 | 45.36558 | 6.58501 | 6253 ft | 63 kts | 326° |
| 2026-05-05 08:20 | 45.36773 | 6.58170 | 6006 ft | 18 kts | 289° |
| 2026-05-05 08:20 | 45.36827 | 6.58097 | 5902 ft | 6 kts | 110° |
| 2026-05-05 08:20 | 45.36802 | 6.58070 | 5933 ft | 5 kts | 315° |
| 2026-05-05 08:20 | 45.36883 | 6.58061 | 5885 ft | 10 kts | 173° |
| 2026-05-05 08:21 | 45.36868 | 6.58034 | 5808 ft | 5 kts | 10° |
| 2026-05-05 08:21 | 45.37047 | 6.58257 | 5740 ft | 61 kts | 41° |
| 2026-05-05 08:21 | 45.37128 | 6.58057 | 5700 ft | 31 kts | 158° |
| 2026-05-05 08:21 | 45.36935 | 6.58042 | 5763 ft | 13 kts | 175° |
| 2026-05-05 08:22 | 45.36905 | 6.58039 | 5758 ft | 2 kts | 165° |
| 2026-05-05 08:22 | 45.36904 | 6.58040 | 5754 ft | 0 kts | 164° |
| 2026-05-05 08:26 | 45.36992 | 6.58113 | 5822 ft | 47 kts | 21° |
| 2026-05-05 08:26 | 45.37033 | 6.57623 | 6111 ft | 55 kts | 233° |
| 2026-05-05 08:27 | 45.36943 | 6.57074 | 6574 ft | 57 kts | 255° |
| 2026-05-05 08:27 | 45.36829 | 6.56632 | 7017 ft | 36 kts | 215° |
| 2026-05-05 08:27 | 45.36561 | 6.56572 | 7354 ft | 42 kts | 201° |
| 2026-05-05 08:27 | 45.36335 | 6.56271 | 7762 ft | 49 kts | 233° |
| 2026-05-05 08:28 | 45.36181 | 6.55796 | 8079 ft | 65 kts | 228° |
| 2026-05-05 08:28 | 45.35828 | 6.55093 | 8087 ft | 105 kts | 232° |
| 2026-05-05 08:28 | 45.35528 | 6.54004 | 7973 ft | 131 kts | 249° |
| 2026-05-05 08:28 | 45.35219 | 6.52732 | 7833 ft | 140 kts | 241° |
| 2026-05-05 08:29 | 45.34732 | 6.51524 | 7749 ft | 140 kts | 234° |
| 2026-05-05 08:29 | 45.34234 | 6.50391 | 7790 ft | 129 kts | 232° |
| 2026-05-05 08:29 | 45.33758 | 6.49413 | 7987 ft | 112 kts | 231° |
| 2026-05-05 08:30 | 45.32914 | 6.47910 | 8599 ft | 85 kts | 225° |
| 2026-05-05 08:30 | 45.32534 | 6.47323 | 8935 ft | 77 kts | 223° |
| 2026-05-05 08:30 | 45.32162 | 6.46688 | 9104 ft | 92 kts | 229° |
| 2026-05-05 08:30 | 45.31770 | 6.45854 | 9107 ft | 110 kts | 232° |
| 2026-05-05 08:31 | 45.31342 | 6.44863 | 9012 ft | 124 kts | 232° |
| 2026-05-05 08:31 | 45.30842 | 6.43806 | 8887 ft | 135 kts | 229° |
| 2026-05-05 08:31 | 45.30234 | 6.42641 | 8109 ft | 157 kts | 228° |
| 2026-05-05 08:31 | 45.29568 | 6.41368 | 7472 ft | 162 kts | 229° |
| 2026-05-05 08:32 | 45.28938 | 6.40155 | 7151 ft | 133 kts | 231° |
| 2026-05-05 08:32 | 45.28453 | 6.39233 | 6825 ft | 105 kts | 231° |
| 2026-05-05 08:32 | 45.28031 | 6.38488 | 6275 ft | 88 kts | 230° |
| 2026-05-05 08:32 | 45.27655 | 6.37888 | 5682 ft | 75 kts | 227° |
| 2026-05-05 08:33 | 45.27287 | 6.37422 | 5119 ft | 74 kts | 197° |
| 2026-05-05 08:33 | 45.26750 | 6.37208 | 4370 ft | 89 kts | 223° |
| 2026-05-05 08:33 | 45.26588 | 6.36351 | 3696 ft | 100 kts | 285° |
| 2026-05-05 08:33 | 45.26849 | 6.35367 | 3155 ft | 112 kts | 289° |
| 2026-05-05 08:34 | 45.27266 | 6.34701 | 2721 ft | 76 kts | 5° |
| 2026-05-05 08:34 | 45.27726 | 6.34724 | 2350 ft | 48 kts | 349° |
| 2026-05-05 08:34 | 45.27792 | 6.34391 | 2111 ft | 20 kts | 252° |
| 2026-05-05 08:34 | 45.27754 | 6.34248 | 2061 ft | 14 kts | 278° |
| 2026-05-05 08:35 | 45.27777 | 6.34177 | 2025 ft | 1 kts | 3° |
| 2026-05-05 08:35 | 45.27778 | 6.34178 | 2023 ft | 0 kts | 351° |
| 2026-05-05 08:38 | 45.27778 | 6.34177 | 2023 ft | 1 kts | 357° |
| 2026-05-05 08:38 | 45.27766 | 6.34217 | 2101 ft | 19 kts | 63° |
| 2026-05-05 08:38 | 45.27691 | 6.34665 | 2342 ft | 73 kts | 96° |
| 2026-05-05 08:39 | 45.27386 | 6.35492 | 2400 ft | 114 kts | 114° |
| 2026-05-05 08:39 | 45.26971 | 6.36453 | 2628 ft | 111 kts | 115° |
| 2026-05-05 08:39 | 45.26574 | 6.37369 | 2887 ft | 107 kts | 118° |
| 2026-05-05 08:39 | 45.26195 | 6.38245 | 3141 ft | 102 kts | 120° |
| 2026-05-05 08:40 | 45.25833 | 6.39086 | 3410 ft | 97 kts | 122° |
| 2026-05-05 08:40 | 45.25493 | 6.39890 | 3679 ft | 93 kts | 122° |
| 2026-05-05 08:40 | 45.25175 | 6.40659 | 3968 ft | 90 kts | 122° |
| 2026-05-05 08:40 | 45.24868 | 6.41415 | 4267 ft | 87 kts | 121° |
| 2026-05-05 08:41 | 45.24552 | 6.42203 | 4407 ft | 102 kts | 119° |
| 2026-05-05 08:41 | 45.24189 | 6.43138 | 4495 ft | 110 kts | 118° |
| 2026-05-05 08:41 | 45.23827 | 6.44110 | 4598 ft | 115 kts | 117° |
| 2026-05-05 08:41 | 45.23464 | 6.45138 | 4698 ft | 118 kts | 116° |
| 2026-05-05 08:42 | 45.23121 | 6.46181 | 4824 ft | 112 kts | 114° |
| 2026-05-05 08:42 | 45.22836 | 6.47165 | 4961 ft | 102 kts | 112° |
| 2026-05-05 08:42 | 45.22608 | 6.48080 | 5123 ft | 94 kts | 110° |
| 2026-05-05 08:42 | 45.22425 | 6.48946 | 5223 ft | 96 kts | 107° |
| 2026-05-05 08:43 | 45.22256 | 6.49898 | 5264 ft | 96 kts | 105° |
| 2026-05-05 08:43 | 45.22135 | 6.50774 | 5465 ft | 87 kts | 103° |
| 2026-05-05 08:43 | 45.22027 | 6.51617 | 5645 ft | 88 kts | 110° |
| 2026-05-05 08:43 | 45.21662 | 6.52395 | 5530 ft | 108 kts | 127° |
| 2026-05-05 08:44 | 45.21268 | 6.53383 | 5406 ft | 116 kts | 110° |
| 2026-05-05 08:44 | 45.21102 | 6.54431 | 5294 ft | 111 kts | 99° |
| 2026-05-05 08:44 | 45.20985 | 6.55558 | 4992 ft | 113 kts | 97° |
| 2026-05-05 08:44 | 45.20913 | 6.56609 | 4923 ft | 102 kts | 105° |
| 2026-05-05 08:45 | 45.20663 | 6.57499 | 4892 ft | 93 kts | 117° |
| 2026-05-05 08:45 | 45.20393 | 6.58301 | 4860 ft | 86 kts | 118° |
| 2026-05-05 08:45 | 45.20166 | 6.59052 | 4771 ft | 83 kts | 107° |
| 2026-05-05 08:45 | 45.20037 | 6.60001 | 4646 ft | 108 kts | 100° |
| 2026-05-05 08:46 | 45.19921 | 6.61029 | 4857 ft | 103 kts | 101° |
| 2026-05-05 08:46 | 45.19800 | 6.62037 | 5004 ft | 104 kts | 103° |
| 2026-05-05 08:46 | 45.19511 | 6.63097 | 4583 ft | 133 kts | 120° |
| 2026-05-05 08:46 | 45.19097 | 6.64286 | 4337 ft | 128 kts | 104° |
| 2026-05-05 08:47 | 45.19109 | 6.65446 | 4214 ft | 111 kts | 71° |
| 2026-05-05 08:47 | 45.19563 | 6.66238 | 4066 ft | 97 kts | 50° |
| 2026-05-05 08:47 | 45.20049 | 6.66791 | 3959 ft | 84 kts | 43° |
| 2026-05-05 08:47 | 45.20405 | 6.67333 | 3856 ft | 64 kts | 74° |
| 2026-05-05 08:48 | 45.20412 | 6.67796 | 3825 ft | 38 kts | 115° |
| 2026-05-05 08:48 | 45.20376 | 6.68140 | 3805 ft | 18 kts | 110° |
| 2026-05-05 08:48 | 45.20365 | 6.68208 | 3735 ft | 3 kts | 116° |
| 2026-05-05 08:48 | 45.20364 | 6.68212 | 3728 ft | 0 kts | 99° |
| 2026-05-05 08:50 | 45.20361 | 6.68256 | 3722 ft | 7 kts | 121° |
| 2026-05-05 08:50 | 45.20358 | 6.68264 | 3721 ft | 0 kts | 331° |